sensor_id;sensor_type;location;lat;lon;timestamp;temperature;humidity
24682;DHT22;12802;53.390;-2.328;2022-11-15T00:01:18;9.50;99.90
24682;DHT22;12802;53.390;-2.328;2022-11-15T00:04:05;9.50;99.90
24682;DHT22;12802;53.390;-2.328;2022-11-15T00:06:50;9.50;99.90
24682;DHT22;12802;53.390;-2.328;2022-11-15T00:09:34;9.40;99.90
24682;DHT22;12802;53.390;-2.328;2022-11-15T00:12:19;9.40;99.90
24682;DHT22;12802;53.390;-2.328;2022-11-15T00:15:03;9.40;99.90
24682;DHT22;12802;53.390;-2.328;2022-11-15T00:17:50;9.40;99.90
24682;DHT22;12802;53.390;-2.328;2022-11-15T00:20:35;9.40;99.90
24682;DHT22;12802;53.390;-2.328;2022-11-15T00:23:19;9.40;99.90
24682;DHT22;12802;53.390;-2.328;2022-11-15T00:26:04;9.40;99.90
24682;DHT22;12802;53.390;-2.328;2022-11-15T00:28:48;9.40;99.90
24682;DHT22;12802;53.390;-2.328;2022-11-15T00:31:33;9.40;99.90
24682;DHT22;12802;53.390;-2.328;2022-11-15T00:34:18;9.50;99.90
24682;DHT22;12802;53.390;-2.328;2022-11-15T00:37:02;9.50;99.90
24682;DHT22;12802;53.390;-2.328;2022-11-15T00:39:47;9.40;99.90
24682;DHT22;12802;53.390;-2.328;2022-11-15T00:42:32;9.50;99.90
24682;DHT22;12802;53.390;-2.328;2022-11-15T00:45:16;9.50;99.90
24682;DHT22;12802;53.390;-2.328;2022-11-15T00:48:00;9.50;99.90
24682;DHT22;12802;53.390;-2.328;2022-11-15T00:50:45;9.50;99.90
24682;DHT22;12802;53.390;-2.328;2022-11-15T00:53:28;9.40;99.90
24682;DHT22;12802;53.390;-2.328;2022-11-15T00:56:13;9.50;99.90
24682;DHT22;12802;53.390;-2.328;2022-11-15T00:58:58;9.50;99.90
24682;DHT22;12802;53.390;-2.328;2022-11-15T01:01:42;9.50;99.90
24682;DHT22;12802;53.390;-2.328;2022-11-15T01:04:26;9.60;99.90
24682;DHT22;12802;53.390;-2.328;2022-11-15T01:07:11;9.60;99.90
24682;DHT22;12802;53.390;-2.328;2022-11-15T01:09:55;9.60;99.90
24682;DHT22;12802;53.390;-2.328;2022-11-15T01:12:39;9.60;99.90
24682;DHT22;12802;53.390;-2.328;2022-11-15T01:15:24;9.60;99.90
24682;DHT22;12802;53.390;-2.328;2022-11-15T01:18:08;9.60;99.90
24682;DHT22;12802;53.390;-2.328;2022-11-15T01:20:52;9.70;99.90
24682;DHT22;12802;53.390;-2.328;2022-11-15T01:23:38;9.70;99.90
24682;DHT22;12802;53.390;-2.328;2022-11-15T01:26:24;9.70;99.90
24682;DHT22;12802;53.390;-2.328;2022-11-15T01:29:08;9.80;99.90
24682;DHT22;12802;53.390;-2.328;2022-11-15T01:31:53;9.80;99.90
24682;DHT22;12802;53.390;-2.328;2022-11-15T01:34:38;9.80;99.90
24682;DHT22;12802;53.390;-2.328;2022-11-15T01:37:22;9.80;99.90
24682;DHT22;12802;53.390;-2.328;2022-11-15T01:40:07;9.80;99.90
24682;DHT22;12802;53.390;-2.328;2022-11-15T01:42:51;9.80;99.90
24682;DHT22;12802;53.390;-2.328;2022-11-15T01:45:36;9.80;99.90
24682;DHT22;12802;53.390;-2.328;2022-11-15T01:48:21;9.80;99.90
24682;DHT22;12802;53.390;-2.328;2022-11-15T01:51:12;9.80;99.90
24682;DHT22;12802;53.390;-2.328;2022-11-15T01:54:00;9.90;99.90
24682;DHT22;12802;53.390;-2.328;2022-11-15T01:56:52;9.90;99.90
24682;DHT22;12802;53.390;-2.328;2022-11-15T01:59:39;9.90;99.90
24682;DHT22;12802;53.390;-2.328;2022-11-15T02:02:24;10.00;99.90
24682;DHT22;12802;53.390;-2.328;2022-11-15T02:05:08;10.00;99.90
24682;DHT22;12802;53.390;-2.328;2022-11-15T02:07:53;10.00;99.90
24682;DHT22;12802;53.390;-2.328;2022-11-15T02:10:38;10.10;99.90
24682;DHT22;12802;53.390;-2.328;2022-11-15T02:13:22;10.10;99.90
24682;DHT22;12802;53.390;-2.328;2022-11-15T02:19:35;10.20;99.90
24682;DHT22;12802;53.390;-2.328;2022-11-15T02:25:40;10.20;99.90
24682;DHT22;12802;53.390;-2.328;2022-11-15T02:37:31;10.20;99.90
24682;DHT22;12802;53.390;-2.328;2022-11-15T02:43:17;10.20;99.90
24682;DHT22;12802;53.390;-2.328;2022-11-15T02:49:33;10.20;99.90
24682;DHT22;12802;53.390;-2.328;2022-11-15T02:52:23;10.20;99.90
24682;DHT22;12802;53.390;-2.328;2022-11-15T02:55:38;10.20;99.90
24682;DHT22;12802;53.390;-2.328;2022-11-15T03:13:48;10.30;99.90
24682;DHT22;12802;53.390;-2.328;2022-11-15T03:19:30;10.40;99.90
24682;DHT22;12802;53.390;-2.328;2022-11-15T03:22:19;10.40;99.90
24682;DHT22;12802;53.390;-2.328;2022-11-15T03:25:07;10.30;99.90
24682;DHT22;12802;53.390;-2.328;2022-11-15T03:27:55;10.40;99.90
24682;DHT22;12802;53.390;-2.328;2022-11-15T03:30:40;10.40;99.90
24682;DHT22;12802;53.390;-2.328;2022-11-15T03:33:27;10.40;99.90
24682;DHT22;12802;53.390;-2.328;2022-11-15T03:36:12;10.40;99.90
24682;DHT22;12802;53.390;-2.328;2022-11-15T03:39:02;10.40;99.90
24682;DHT22;12802;53.390;-2.328;2022-11-15T03:42:12;10.40;99.90
24682;DHT22;12802;53.390;-2.328;2022-11-15T03:45:25;10.40;99.90
24682;DHT22;12802;53.390;-2.328;2022-11-15T03:48:21;10.40;99.90
24682;DHT22;12802;53.390;-2.328;2022-11-15T03:51:06;10.40;99.90
24682;DHT22;12802;53.390;-2.328;2022-11-15T03:53:51;10.40;99.90
24682;DHT22;12802;53.390;-2.328;2022-11-15T03:56:36;10.30;99.90
24682;DHT22;12802;53.390;-2.328;2022-11-15T03:59:20;10.30;99.90
24682;DHT22;12802;53.390;-2.328;2022-11-15T04:02:04;10.20;99.90
24682;DHT22;12802;53.390;-2.328;2022-11-15T04:04:48;10.20;99.90
24682;DHT22;12802;53.390;-2.328;2022-11-15T04:07:33;10.20;99.90
24682;DHT22;12802;53.390;-2.328;2022-11-15T04:10:18;10.20;99.90
24682;DHT22;12802;53.390;-2.328;2022-11-15T04:13:02;10.20;99.90
24682;DHT22;12802;53.390;-2.328;2022-11-15T04:15:46;10.20;99.90
24682;DHT22;12802;53.390;-2.328;2022-11-15T04:18:31;10.20;99.90
24682;DHT22;12802;53.390;-2.328;2022-11-15T04:21:15;10.20;99.90
24682;DHT22;12802;53.390;-2.328;2022-11-15T04:24:18;10.20;99.90
24682;DHT22;12802;53.390;-2.328;2022-11-15T04:27:02;10.30;99.90
24682;DHT22;12802;53.390;-2.328;2022-11-15T04:29:47;10.20;99.90
24682;DHT22;12802;53.390;-2.328;2022-11-15T04:32:31;10.30;99.90
24682;DHT22;12802;53.390;-2.328;2022-11-15T04:35:15;10.20;99.90
24682;DHT22;12802;53.390;-2.328;2022-11-15T04:38:01;10.20;99.90
24682;DHT22;12802;53.390;-2.328;2022-11-15T04:40:46;10.30;99.90
24682;DHT22;12802;53.390;-2.328;2022-11-15T04:43:30;10.30;99.90
24682;DHT22;12802;53.390;-2.328;2022-11-15T04:46:15;10.30;99.90
24682;DHT22;12802;53.390;-2.328;2022-11-15T04:49:01;10.30;99.90
24682;DHT22;12802;53.390;-2.328;2022-11-15T04:51:46;10.30;99.90
24682;DHT22;12802;53.390;-2.328;2022-11-15T04:54:30;10.30;99.90
24682;DHT22;12802;53.390;-2.328;2022-11-15T04:57:15;10.30;99.90
24682;DHT22;12802;53.390;-2.328;2022-11-15T04:59:59;10.30;99.90
24682;DHT22;12802;53.390;-2.328;2022-11-15T05:02:43;10.30;99.90
24682;DHT22;12802;53.390;-2.328;2022-11-15T05:05:46;10.30;99.90
24682;DHT22;12802;53.390;-2.328;2022-11-15T05:08:30;10.30;99.90
24682;DHT22;12802;53.390;-2.328;2022-11-15T05:11:14;10.30;99.90
24682;DHT22;12802;53.390;-2.328;2022-11-15T05:13:59;10.30;99.90
24682;DHT22;12802;53.390;-2.328;2022-11-15T05:16:43;10.40;99.90
24682;DHT22;12802;53.390;-2.328;2022-11-15T05:19:27;10.40;99.90
24682;DHT22;12802;53.390;-2.328;2022-11-15T05:22:11;10.40;99.90
24682;DHT22;12802;53.390;-2.328;2022-11-15T05:24:56;10.40;99.90
24682;DHT22;12802;53.390;-2.328;2022-11-15T05:27:40;10.40;99.90
24682;DHT22;12802;53.390;-2.328;2022-11-15T05:30:25;10.50;99.90
24682;DHT22;12802;53.390;-2.328;2022-11-15T05:33:09;10.40;99.90
24682;DHT22;12802;53.390;-2.328;2022-11-15T05:39:05;10.40;99.90
24682;DHT22;12802;53.390;-2.328;2022-11-15T05:41:55;10.40;99.90
24682;DHT22;12802;53.390;-2.328;2022-11-15T05:44:44;10.40;99.90
24682;DHT22;12802;53.390;-2.328;2022-11-15T05:47:30;10.40;99.90
24682;DHT22;12802;53.390;-2.328;2022-11-15T05:50:17;10.40;99.90
24682;DHT22;12802;53.390;-2.328;2022-11-15T05:53:02;10.40;99.90
24682;DHT22;12802;53.390;-2.328;2022-11-15T05:55:47;10.50;99.90
24682;DHT22;12802;53.390;-2.328;2022-11-15T05:58:35;10.40;99.90
24682;DHT22;12802;53.390;-2.328;2022-11-15T06:01:20;10.50;99.90
24682;DHT22;12802;53.390;-2.328;2022-11-15T06:04:05;10.50;99.90
24682;DHT22;12802;53.390;-2.328;2022-11-15T06:06:49;10.50;99.90
24682;DHT22;12802;53.390;-2.328;2022-11-15T06:09:34;10.60;99.90
24682;DHT22;12802;53.390;-2.328;2022-11-15T06:12:18;10.70;99.90
24682;DHT22;12802;53.390;-2.328;2022-11-15T06:15:02;10.70;99.90
24682;DHT22;12802;53.390;-2.328;2022-11-15T06:17:47;10.70;99.90
24682;DHT22;12802;53.390;-2.328;2022-11-15T06:20:31;10.80;99.90
24682;DHT22;12802;53.390;-2.328;2022-11-15T06:23:16;10.80;99.90
24682;DHT22;12802;53.390;-2.328;2022-11-15T06:26:01;10.90;99.90
24682;DHT22;12802;53.390;-2.328;2022-11-15T06:28:46;10.90;99.90
24682;DHT22;12802;53.390;-2.328;2022-11-15T06:31:31;10.90;99.90
24682;DHT22;12802;53.390;-2.328;2022-11-15T06:34:15;11.00;99.90
24682;DHT22;12802;53.390;-2.328;2022-11-15T06:36:59;11.00;99.90
24682;DHT22;12802;53.390;-2.328;2022-11-15T06:39:43;10.90;99.90
24682;DHT22;12802;53.390;-2.328;2022-11-15T06:42:27;10.90;99.90
24682;DHT22;12802;53.390;-2.328;2022-11-15T06:45:12;10.90;99.90
24682;DHT22;12802;53.390;-2.328;2022-11-15T06:47:56;10.90;99.90
24682;DHT22;12802;53.390;-2.328;2022-11-15T06:50:40;10.90;99.90
24682;DHT22;12802;53.390;-2.328;2022-11-15T06:53:26;10.90;99.90
24682;DHT22;12802;53.390;-2.328;2022-11-15T06:56:11;10.90;99.90
24682;DHT22;12802;53.390;-2.328;2022-11-15T06:58:56;10.90;99.90
24682;DHT22;12802;53.390;-2.328;2022-11-15T07:01:40;10.90;99.90
24682;DHT22;12802;53.390;-2.328;2022-11-15T07:04:24;10.80;99.90
24682;DHT22;12802;53.390;-2.328;2022-11-15T07:07:08;10.80;99.90
24682;DHT22;12802;53.390;-2.328;2022-11-15T07:09:52;10.90;99.90
24682;DHT22;12802;53.390;-2.328;2022-11-15T07:12:36;10.80;99.90
24682;DHT22;12802;53.390;-2.328;2022-11-15T07:15:23;10.80;99.90
24682;DHT22;12802;53.390;-2.328;2022-11-15T07:18:08;10.80;99.90
24682;DHT22;12802;53.390;-2.328;2022-11-15T07:20:52;10.80;99.90
24682;DHT22;12802;53.390;-2.328;2022-11-15T07:23:38;10.80;99.90
24682;DHT22;12802;53.390;-2.328;2022-11-15T07:26:22;10.80;99.90
24682;DHT22;12802;53.390;-2.328;2022-11-15T07:29:07;10.80;99.90
24682;DHT22;12802;53.390;-2.328;2022-11-15T07:31:51;10.80;99.90
24682;DHT22;12802;53.390;-2.328;2022-11-15T07:34:35;10.80;99.90
24682;DHT22;12802;53.390;-2.328;2022-11-15T07:37:20;10.80;99.90
24682;DHT22;12802;53.390;-2.328;2022-11-15T07:40:04;10.70;99.90
24682;DHT22;12802;53.390;-2.328;2022-11-15T07:42:49;10.70;99.90
24682;DHT22;12802;53.390;-2.328;2022-11-15T07:45:42;10.80;99.90
24682;DHT22;12802;53.390;-2.328;2022-11-15T07:48:26;10.70;99.90
24682;DHT22;12802;53.390;-2.328;2022-11-15T07:51:15;10.70;99.90
24682;DHT22;12802;53.390;-2.328;2022-11-15T07:54:00;10.70;99.90
24682;DHT22;12802;53.390;-2.328;2022-11-15T07:56:45;10.80;99.90
24682;DHT22;12802;53.390;-2.328;2022-11-15T07:59:29;10.70;99.90
24682;DHT22;12802;53.390;-2.328;2022-11-15T08:02:14;10.80;99.90
24682;DHT22;12802;53.390;-2.328;2022-11-15T08:05:01;10.80;99.90
24682;DHT22;12802;53.390;-2.328;2022-11-15T08:07:46;10.80;99.90
24682;DHT22;12802;53.390;-2.328;2022-11-15T08:10:30;10.80;99.90
24682;DHT22;12802;53.390;-2.328;2022-11-15T08:13:14;10.80;99.90
24682;DHT22;12802;53.390;-2.328;2022-11-15T08:16:00;10.90;99.90
24682;DHT22;12802;53.390;-2.328;2022-11-15T08:18:45;10.90;99.90
24682;DHT22;12802;53.390;-2.328;2022-11-15T08:21:30;10.90;99.90
24682;DHT22;12802;53.390;-2.328;2022-11-15T08:24:14;10.90;99.90
24682;DHT22;12802;53.390;-2.328;2022-11-15T08:26:59;10.90;99.90
24682;DHT22;12802;53.390;-2.328;2022-11-15T08:29:44;10.90;99.90
24682;DHT22;12802;53.390;-2.328;2022-11-15T08:32:29;10.90;99.90
24682;DHT22;12802;53.390;-2.328;2022-11-15T08:35:14;11.00;99.90
24682;DHT22;12802;53.390;-2.328;2022-11-15T08:37:59;11.00;99.90
24682;DHT22;12802;53.390;-2.328;2022-11-15T08:40:43;11.00;99.90
24682;DHT22;12802;53.390;-2.328;2022-11-15T08:43:27;11.10;99.90
24682;DHT22;12802;53.390;-2.328;2022-11-15T08:46:13;11.10;99.90
24682;DHT22;12802;53.390;-2.328;2022-11-15T08:48:57;11.10;99.90
24682;DHT22;12802;53.390;-2.328;2022-11-15T08:51:42;11.10;99.90
24682;DHT22;12802;53.390;-2.328;2022-11-15T08:54:26;11.10;99.90
24682;DHT22;12802;53.390;-2.328;2022-11-15T08:57:11;11.20;99.90
24682;DHT22;12802;53.390;-2.328;2022-11-15T08:59:55;11.20;99.90
24682;DHT22;12802;53.390;-2.328;2022-11-15T09:02:40;11.20;99.90
24682;DHT22;12802;53.390;-2.328;2022-11-15T09:05:25;11.20;99.90
24682;DHT22;12802;53.390;-2.328;2022-11-15T09:08:09;11.20;99.90
24682;DHT22;12802;53.390;-2.328;2022-11-15T09:10:55;11.20;99.90
24682;DHT22;12802;53.390;-2.328;2022-11-15T09:13:40;11.20;99.90
24682;DHT22;12802;53.390;-2.328;2022-11-15T09:16:25;11.30;99.90
24682;DHT22;12802;53.390;-2.328;2022-11-15T09:19:09;11.30;99.90
24682;DHT22;12802;53.390;-2.328;2022-11-15T09:21:53;11.30;99.90
24682;DHT22;12802;53.390;-2.328;2022-11-15T09:24:37;11.30;99.90
24682;DHT22;12802;53.390;-2.328;2022-11-15T09:27:22;11.30;99.90
24682;DHT22;12802;53.390;-2.328;2022-11-15T09:30:07;11.40;99.90
24682;DHT22;12802;53.390;-2.328;2022-11-15T09:32:51;11.30;99.90
24682;DHT22;12802;53.390;-2.328;2022-11-15T09:35:36;11.30;99.90
24682;DHT22;12802;53.390;-2.328;2022-11-15T09:38:20;11.30;99.90
24682;DHT22;12802;53.390;-2.328;2022-11-15T09:50:31;11.40;99.90
24682;DHT22;12802;53.390;-2.328;2022-11-15T09:52:57;11.40;99.90
24682;DHT22;12802;53.390;-2.328;2022-11-15T09:55:32;11.40;99.90
24682;DHT22;12802;53.390;-2.328;2022-11-15T09:58:08;11.40;99.90
24682;DHT22;12802;53.390;-2.328;2022-11-15T10:00:42;11.50;99.90
24682;DHT22;12802;53.390;-2.328;2022-11-15T10:03:16;11.50;99.90
24682;DHT22;12802;53.390;-2.328;2022-11-15T10:05:46;11.50;99.90
24682;DHT22;12802;53.390;-2.328;2022-11-15T10:10:44;11.50;99.90
24682;DHT22;12802;53.390;-2.328;2022-11-15T10:13:31;11.50;99.90
24682;DHT22;12802;53.390;-2.328;2022-11-15T10:22:34;11.50;99.90
24682;DHT22;12802;53.390;-2.328;2022-11-15T10:25:26;11.50;99.90
24682;DHT22;12802;53.390;-2.328;2022-11-15T10:27:59;11.50;99.90
24682;DHT22;12802;53.390;-2.328;2022-11-15T10:30:41;11.50;99.90
24682;DHT22;12802;53.390;-2.328;2022-11-15T10:35:43;11.50;99.90
24682;DHT22;12802;53.390;-2.328;2022-11-15T10:38:10;11.50;99.90
24682;DHT22;12802;53.390;-2.328;2022-11-15T10:40:38;11.50;99.90
24682;DHT22;12802;53.390;-2.328;2022-11-15T10:45:37;11.50;99.90
24682;DHT22;12802;53.390;-2.328;2022-11-15T10:50:39;11.50;99.90
24682;DHT22;12802;53.390;-2.328;2022-11-15T10:53:22;11.50;99.90
24682;DHT22;12802;53.390;-2.328;2022-11-15T10:55:51;11.60;99.90
24682;DHT22;12802;53.390;-2.328;2022-11-15T10:58:34;11.60;99.90
24682;DHT22;12802;53.390;-2.328;2022-11-15T11:01:45;11.60;99.90
24682;DHT22;12802;53.390;-2.328;2022-11-15T11:04:08;11.60;99.90
24682;DHT22;12802;53.390;-2.328;2022-11-15T11:06:48;11.60;99.90
24682;DHT22;12802;53.390;-2.328;2022-11-15T11:09:36;11.60;99.90
24682;DHT22;12802;53.390;-2.328;2022-11-15T11:12:05;11.60;99.90
24682;DHT22;12802;53.390;-2.328;2022-11-15T11:14:33;11.60;99.90
24682;DHT22;12802;53.390;-2.328;2022-11-15T11:22:55;11.60;99.90
24682;DHT22;12802;53.390;-2.328;2022-11-15T11:25:51;11.60;99.90
24682;DHT22;12802;53.390;-2.328;2022-11-15T11:28:30;11.60;99.90
24682;DHT22;12802;53.390;-2.328;2022-11-15T11:31:08;11.60;99.90
24682;DHT22;12802;53.390;-2.328;2022-11-15T11:36:35;11.60;99.90
24682;DHT22;12802;53.390;-2.328;2022-11-15T11:47:00;11.70;99.90
24682;DHT22;12802;53.390;-2.328;2022-11-15T11:49:50;11.70;99.90
24682;DHT22;12802;53.390;-2.328;2022-11-15T11:52:23;11.70;99.90
24682;DHT22;12802;53.390;-2.328;2022-11-15T12:00:14;11.80;99.90
24682;DHT22;12802;53.390;-2.328;2022-11-15T12:02:45;11.90;99.90
24682;DHT22;12802;53.390;-2.328;2022-11-15T12:05:25;11.90;99.90
24682;DHT22;12802;53.390;-2.328;2022-11-15T12:07:56;11.90;99.90
24682;DHT22;12802;53.390;-2.328;2022-11-15T12:10:30;11.90;99.90
24682;DHT22;12802;53.390;-2.328;2022-11-15T12:13:09;11.90;99.90
24682;DHT22;12802;53.390;-2.328;2022-11-15T12:15:47;12.00;99.90
24682;DHT22;12802;53.390;-2.328;2022-11-15T12:18:16;11.90;99.90
24682;DHT22;12802;53.390;-2.328;2022-11-15T12:21:01;11.90;99.90
24682;DHT22;12802;53.390;-2.328;2022-11-15T12:23:32;12.00;99.90
24682;DHT22;12802;53.390;-2.328;2022-11-15T12:26:06;12.00;99.90
24682;DHT22;12802;53.390;-2.328;2022-11-15T12:34:15;12.00;99.90
24682;DHT22;12802;53.390;-2.328;2022-11-15T12:36:55;12.00;99.90
24682;DHT22;12802;53.390;-2.328;2022-11-15T12:42:36;12.00;99.90
24682;DHT22;12802;53.390;-2.328;2022-11-15T12:45:34;11.90;99.90
24682;DHT22;12802;53.390;-2.328;2022-11-15T12:50:56;11.60;99.90
24682;DHT22;12802;53.390;-2.328;2022-11-15T12:58:49;11.40;99.90
24682;DHT22;12802;53.390;-2.328;2022-11-15T13:06:56;11.40;99.90
24682;DHT22;12802;53.390;-2.328;2022-11-15T13:14:54;11.30;99.90
24682;DHT22;12802;53.390;-2.328;2022-11-15T13:22:47;11.00;99.90
24682;DHT22;12802;53.390;-2.328;2022-11-15T13:25:46;11.00;99.90
24682;DHT22;12802;53.390;-2.328;2022-11-15T13:33:23;10.80;99.90
24682;DHT22;12802;53.390;-2.328;2022-11-15T13:35:55;10.80;99.90
24682;DHT22;12802;53.390;-2.328;2022-11-15T13:38:28;10.80;99.90
24682;DHT22;12802;53.390;-2.328;2022-11-15T13:40:55;10.80;99.90
24682;DHT22;12802;53.390;-2.328;2022-11-15T13:46:10;10.70;99.90
24682;DHT22;12802;53.390;-2.328;2022-11-15T13:48:36;10.80;99.90
24682;DHT22;12802;53.390;-2.328;2022-11-15T13:51:06;10.70;99.90
24682;DHT22;12802;53.390;-2.328;2022-11-15T13:53:34;10.80;99.90
24682;DHT22;12802;53.390;-2.328;2022-11-15T13:56:02;10.80;99.90
24682;DHT22;12802;53.390;-2.328;2022-11-15T13:58:29;10.80;99.90
24682;DHT22;12802;53.390;-2.328;2022-11-15T14:01:01;10.70;99.90
24682;DHT22;12802;53.390;-2.328;2022-11-15T14:03:29;10.70;99.90
24682;DHT22;12802;53.390;-2.328;2022-11-15T14:06:14;10.70;99.90
24682;DHT22;12802;53.390;-2.328;2022-11-15T14:09:45;10.70;99.90
24682;DHT22;12802;53.390;-2.328;2022-11-15T14:11:53;10.70;99.90
24682;DHT22;12802;53.390;-2.328;2022-11-15T14:14:21;10.70;99.90
24682;DHT22;12802;53.390;-2.328;2022-11-15T14:19:55;10.60;99.90
24682;DHT22;12802;53.390;-2.328;2022-11-15T14:27:31;10.60;99.90
24682;DHT22;12802;53.390;-2.328;2022-11-15T14:29:57;10.60;99.90
24682;DHT22;12802;53.390;-2.328;2022-11-15T14:32:25;10.60;99.90
24682;DHT22;12802;53.390;-2.328;2022-11-15T14:37:30;10.60;99.90
24682;DHT22;12802;53.390;-2.328;2022-11-15T14:40:01;10.60;99.90
24682;DHT22;12802;53.390;-2.328;2022-11-15T14:42:27;10.70;99.90
24682;DHT22;12802;53.390;-2.328;2022-11-15T14:44:53;10.60;99.90
24682;DHT22;12802;53.390;-2.328;2022-11-15T14:47:20;10.50;99.90
24682;DHT22;12802;53.390;-2.328;2022-11-15T14:49:46;10.50;99.90
24682;DHT22;12802;53.390;-2.328;2022-11-15T14:52:30;10.50;99.90
24682;DHT22;12802;53.390;-2.328;2022-11-15T14:55:00;10.50;99.90
24682;DHT22;12802;53.390;-2.328;2022-11-15T14:57:28;10.50;99.90
24682;DHT22;12802;53.390;-2.328;2022-11-15T14:59:54;10.50;99.90
24682;DHT22;12802;53.390;-2.328;2022-11-15T15:02:24;10.50;99.90
24682;DHT22;12802;53.390;-2.328;2022-11-15T15:04:50;10.60;99.90
24682;DHT22;12802;53.390;-2.328;2022-11-15T15:07:17;10.50;99.90
24682;DHT22;12802;53.390;-2.328;2022-11-15T15:09:44;10.50;99.90
24682;DHT22;12802;53.390;-2.328;2022-11-15T15:12:19;10.50;99.90
24682;DHT22;12802;53.390;-2.328;2022-11-15T15:14:47;10.50;99.90
24682;DHT22;12802;53.390;-2.328;2022-11-15T15:17:13;10.50;99.90
24682;DHT22;12802;53.390;-2.328;2022-11-15T15:19:39;10.40;99.90
24682;DHT22;12802;53.390;-2.328;2022-11-15T15:22:08;10.40;99.90
24682;DHT22;12802;53.390;-2.328;2022-11-15T15:24:34;10.40;99.90
24682;DHT22;12802;53.390;-2.328;2022-11-15T15:27:00;10.30;99.90
24682;DHT22;12802;53.390;-2.328;2022-11-15T15:29:26;10.40;99.90
24682;DHT22;12802;53.390;-2.328;2022-11-15T15:31:51;10.40;99.90
24682;DHT22;12802;53.390;-2.328;2022-11-15T15:34:17;10.40;99.90
24682;DHT22;12802;53.390;-2.328;2022-11-15T15:36:43;10.40;99.90
24682;DHT22;12802;53.390;-2.328;2022-11-15T15:39:10;10.40;99.90
24682;DHT22;12802;53.390;-2.328;2022-11-15T15:41:36;10.40;99.90
24682;DHT22;12802;53.390;-2.328;2022-11-15T15:44:02;10.30;99.90
24682;DHT22;12802;53.390;-2.328;2022-11-15T15:46:28;10.40;99.90
24682;DHT22;12802;53.390;-2.328;2022-11-15T15:48:54;10.40;99.90
24682;DHT22;12802;53.390;-2.328;2022-11-15T15:51:19;10.40;99.90
24682;DHT22;12802;53.390;-2.328;2022-11-15T15:53:45;10.40;99.90
24682;DHT22;12802;53.390;-2.328;2022-11-15T15:56:11;10.30;99.90
24682;DHT22;12802;53.390;-2.328;2022-11-15T15:58:37;10.30;99.90
24682;DHT22;12802;53.390;-2.328;2022-11-15T16:01:03;10.20;99.90
24682;DHT22;12802;53.390;-2.328;2022-11-15T16:03:28;10.30;99.90
24682;DHT22;12802;53.390;-2.328;2022-11-15T16:05:54;10.20;99.90
24682;DHT22;12802;53.390;-2.328;2022-11-15T16:08:22;10.10;99.90
24682;DHT22;12802;53.390;-2.328;2022-11-15T16:10:49;10.10;99.90
24682;DHT22;12802;53.390;-2.328;2022-11-15T16:13:15;10.00;99.90
24682;DHT22;12802;53.390;-2.328;2022-11-15T16:15:42;10.00;99.90
24682;DHT22;12802;53.390;-2.328;2022-11-15T16:18:17;10.00;99.90
24682;DHT22;12802;53.390;-2.328;2022-11-15T16:20:46;10.00;99.90
24682;DHT22;12802;53.390;-2.328;2022-11-15T16:23:17;9.90;99.90
24682;DHT22;12802;53.390;-2.328;2022-11-15T16:25:47;9.90;99.90
24682;DHT22;12802;53.390;-2.328;2022-11-15T16:28:32;9.90;99.90
24682;DHT22;12802;53.390;-2.328;2022-11-15T16:31:08;9.80;99.90
24682;DHT22;12802;53.390;-2.328;2022-11-15T16:33:34;9.80;99.90
24682;DHT22;12802;53.390;-2.328;2022-11-15T16:36:01;9.80;99.90
24682;DHT22;12802;53.390;-2.328;2022-11-15T16:38:27;9.80;99.90
24682;DHT22;12802;53.390;-2.328;2022-11-15T16:40:52;9.80;99.90
24682;DHT22;12802;53.390;-2.328;2022-11-15T16:43:18;9.80;99.90
24682;DHT22;12802;53.390;-2.328;2022-11-15T16:45:44;9.80;99.90
24682;DHT22;12802;53.390;-2.328;2022-11-15T16:48:28;9.80;99.90
24682;DHT22;12802;53.390;-2.328;2022-11-15T16:50:56;9.80;99.90
24682;DHT22;12802;53.390;-2.328;2022-11-15T16:53:21;9.80;99.90
24682;DHT22;12802;53.390;-2.328;2022-11-15T16:55:48;9.80;99.90
24682;DHT22;12802;53.390;-2.328;2022-11-15T16:58:14;9.80;99.90
24682;DHT22;12802;53.390;-2.328;2022-11-15T17:00:40;9.80;99.90
24682;DHT22;12802;53.390;-2.328;2022-11-15T17:03:05;9.80;99.90
24682;DHT22;12802;53.390;-2.328;2022-11-15T17:05:31;9.80;99.90
24682;DHT22;12802;53.390;-2.328;2022-11-15T17:07:57;9.80;99.90
24682;DHT22;12802;53.390;-2.328;2022-11-15T17:10:25;9.80;99.90
24682;DHT22;12802;53.390;-2.328;2022-11-15T17:12:52;9.80;99.90
24682;DHT22;12802;53.390;-2.328;2022-11-15T17:15:19;9.80;99.90
24682;DHT22;12802;53.390;-2.328;2022-11-15T17:17:51;9.70;99.90
24682;DHT22;12802;53.390;-2.328;2022-11-15T17:20:18;9.70;99.90
24682;DHT22;12802;53.390;-2.328;2022-11-15T17:22:44;9.80;99.90
24682;DHT22;12802;53.390;-2.328;2022-11-15T17:25:12;9.60;99.90
24682;DHT22;12802;53.390;-2.328;2022-11-15T17:27:38;9.60;99.90
24682;DHT22;12802;53.390;-2.328;2022-11-15T17:30:05;9.50;99.90
24682;DHT22;12802;53.390;-2.328;2022-11-15T17:32:31;9.50;99.90
24682;DHT22;12802;53.390;-2.328;2022-11-15T17:34:57;9.50;99.90
24682;DHT22;12802;53.390;-2.328;2022-11-15T17:37:22;9.60;99.90
24682;DHT22;12802;53.390;-2.328;2022-11-15T17:39:48;9.50;99.90
24682;DHT22;12802;53.390;-2.328;2022-11-15T17:42:14;9.40;99.90
24682;DHT22;12802;53.390;-2.328;2022-11-15T17:44:40;9.40;99.90
24682;DHT22;12802;53.390;-2.328;2022-11-15T17:47:06;9.40;99.90
24682;DHT22;12802;53.390;-2.328;2022-11-15T17:49:33;9.40;99.90
24682;DHT22;12802;53.390;-2.328;2022-11-15T17:52:02;9.40;99.90
24682;DHT22;12802;53.390;-2.328;2022-11-15T17:54:28;9.40;99.90
24682;DHT22;12802;53.390;-2.328;2022-11-15T17:56:54;9.30;99.90
24682;DHT22;12802;53.390;-2.328;2022-11-15T17:59:20;9.30;99.90
24682;DHT22;12802;53.390;-2.328;2022-11-15T18:01:45;9.30;99.90
24682;DHT22;12802;53.390;-2.328;2022-11-15T18:04:11;9.30;99.90
24682;DHT22;12802;53.390;-2.328;2022-11-15T18:06:39;9.20;99.90
24682;DHT22;12802;53.390;-2.328;2022-11-15T18:09:05;9.20;99.90
24682;DHT22;12802;53.390;-2.328;2022-11-15T18:11:33;9.20;99.90
24682;DHT22;12802;53.390;-2.328;2022-11-15T18:14:02;9.10;99.90
24682;DHT22;12802;53.390;-2.328;2022-11-15T18:16:30;9.10;99.90
24682;DHT22;12802;53.390;-2.328;2022-11-15T18:18:57;9.10;99.90
24682;DHT22;12802;53.390;-2.328;2022-11-15T18:21:25;9.00;99.90
24682;DHT22;12802;53.390;-2.328;2022-11-15T18:23:54;9.00;99.90
24682;DHT22;12802;53.390;-2.328;2022-11-15T18:26:21;8.90;99.90
24682;DHT22;12802;53.390;-2.328;2022-11-15T18:28:52;8.90;99.90
24682;DHT22;12802;53.390;-2.328;2022-11-15T18:31:21;8.90;99.90
24682;DHT22;12802;53.390;-2.328;2022-11-15T18:33:48;8.90;99.90
24682;DHT22;12802;53.390;-2.328;2022-11-15T18:36:18;8.90;99.90
24682;DHT22;12802;53.390;-2.328;2022-11-15T18:38:44;8.90;99.90
24682;DHT22;12802;53.390;-2.328;2022-11-15T18:41:15;8.90;99.90
24682;DHT22;12802;53.390;-2.328;2022-11-15T18:43:46;8.90;99.90
24682;DHT22;12802;53.390;-2.328;2022-11-15T18:46:17;8.90;99.90
24682;DHT22;12802;53.390;-2.328;2022-11-15T18:48:44;8.90;99.90
24682;DHT22;12802;53.390;-2.328;2022-11-15T18:51:14;8.90;99.90
24682;DHT22;12802;53.390;-2.328;2022-11-15T18:53:41;9.00;99.90